KCOS

City Of Colorado Springs Municipal Airport

Colorado Springs, Colorado, USA
METAR KCOS 170754Z 00000KT 10SM FEW120 SCT130 SCT150 M01/M07 A2988 RMK AO2 SLP114 T10111067
Observed Flight Rules
Dec-17 @ 07:54 UTC (22 minutes ago) Visual Flight Rules
Wind Visibility Clouds
Calm 10 miles
  • Few at 12,000' AGL
  • Scattered at 13,000' AGL
  • Scattered at 15,000' AGL
Temperatures Readings
Current -1°C / 30°F
Dewpoint -7°C / 19°F
Humidity 64%
Altimeter 29.88" Hg
Pressure 1011.4 hPa
Elevation 1856
METAR KCOS 170754Z 00000KT 10SM FEW120 SCT130 SCT150 M01/M07 A2988 RMK AO2 SLP114 T10111067
Observed Flight Rules
Dec-17 @ 07:54 UTC
(22 minutes ago)
VFR
Wind Visibility
Calm 10 miles
Clouds
  • Few at 12,000' AGL
  • Scattered at 13,000' AGL
  • Scattered at 15,000' AGL
Temperature Dewpoint
-1°C / 30°F -7°C / 19°F
Humidity Altimeter Pressure
64% 29.88" Hg 1011.4 hPa